Time;durP1;ratioP1;P1;durP2;ratioP2;P2;SDS_P1;SDS_P2;PMS_P1;PMS_P2;Temp;Humidity;BMP_temperature;BMP_pressure;BME280_temperature;BME280_humidity;BME280_pressure;Samples;Min_cycle;Max_cycle;Signal;HPM_P1;HPM_P2
2023/08/22 00:00:59;;;;;;;;;3.00;1.25;;;;;24.96;48.35;101639.88;5099321;27;46159;-74
2023/08/22 00:03:24;;;;;;;;;2.25;1.50;;;;;24.92;49.05;101637.50;5089442;27;62166;-73
2023/08/22 00:05:49;;;;;;;;;0.00;0.00;;;;;24.86;48.67;101636.13;5090239;27;45471;-73
2023/08/22 00:08:15;;;;;;;;;3.00;2.25;;;;;24.88;49.29;101628.69;5093895;27;50143;-74
2023/08/22 00:10:40;;;;;;;;;2.00;0.50;;;;;24.84;49.20;101624.47;5101818;27;46094;-74
2023/08/22 00:13:06;;;;;;;;;0.75;0.75;;;;;24.85;49.55;101634.38;5101658;27;51576;-73
2023/08/22 00:15:31;;;;;;;;;2.00;1.00;;;;;24.81;49.80;101629.28;5101812;27;45451;-74
2023/08/22 00:17:57;;;;;;;;;2.00;1.00;;;;;24.77;49.33;101623.19;5099262;27;45534;-74
2023/08/22 00:20:23;;;;;;;;;0.75;0.75;;;;;24.73;49.62;101621.69;5092506;27;58037;-74
2023/08/22 00:22:49;;;;;;;;;1.00;1.00;;;;;24.72;49.96;101630.88;5101087;27;45560;-74
2023/08/22 00:25:14;;;;;;;;;0.00;0.00;;;;;24.68;49.80;101626.66;5098870;27;45285;-74
2023/08/22 00:27:40;;;;;;;;;0.75;0.75;;;;;24.68;49.88;101618.47;5101608;27;45307;-74
2023/08/22 00:30:07;;;;;;;;;0.50;0.50;;;;;24.69;50.18;101620.19;5089959;27;46482;-73
2023/08/22 00:32:32;;;;;;;;;1.00;0.25;;;;;24.67;50.03;101612.13;5099516;27;45481;-74
2023/08/22 00:34:58;;;;;;;;;1.00;1.00;;;;;24.59;49.73;101615.47;5101907;27;45611;-74
2023/08/22 00:37:23;;;;;;;;;1.00;1.00;;;;;24.57;50.49;101617.44;5099910;27;45452;-74
2023/08/22 00:39:49;;;;;;;;;1.00;1.00;;;;;24.53;50.27;101617.78;5101310;27;45459;-74
2023/08/22 00:42:14;;;;;;;;;1.00;1.00;;;;;24.55;50.95;101616.69;5100369;27;45361;-74
2023/08/22 00:44:39;;;;;;;;;2.00;1.00;;;;;24.52;50.84;101605.09;5088066;27;45381;-73
2023/08/22 00:47:06;;;;;;;;;1.50;1.00;;;;;24.59;50.55;101626.38;5099405;27;45474;-74
2023/08/22 00:49:32;;;;;;;;;1.75;1.00;;;;;24.59;51.34;101620.91;5100974;27;45601;-74
2023/08/22 00:51:59;;;;;;;;;1.00;1.00;;;;;24.58;50.86;101626.50;5101307;27;45406;-74
2023/08/22 00:54:28;;;;;;;;;0.50;0.50;;;;;24.56;50.60;101614.84;5099377;27;45372;-74
2023/08/22 00:56:54;;;;;;;;;2.00;1.00;;;;;24.53;51.02;101620.50;5092711;27;45507;-74
2023/08/22 00:59:20;;;;;;;;;1.00;1.00;;;;;24.51;51.16;101612.44;5098562;27;45459;-73
2023/08/22 01:01:46;;;;;;;;;2.00;1.00;;;;;24.49;51.03;101621.72;5100994;27;45397;-73
2023/08/22 01:04:11;;;;;;;;;1.00;1.00;;;;;24.47;51.05;101608.19;5101238;27;45423;-74
2023/08/22 01:06:52;;;;;;;;;1.00;1.00;;;;;24.51;51.41;101609.69;5098609;27;45529;-74
2023/08/22 01:09:25;;;;;;;;;0.50;0.50;;;;;24.48;51.68;101604.47;5095217;27;45499;-74
2023/08/22 01:11:53;;;;;;;;;1.00;1.00;;;;;24.41;51.25;101595.91;5099451;27;45699;-74
2023/08/22 01:14:22;;;;;;;;;1.00;1.00;;;;;24.47;51.41;101605.44;5100619;27;45366;-74
2023/08/22 01:16:48;;;;;;;;;2.25;0.50;;;;;24.46;51.37;101605.56;5097725;27;45555;-74
2023/08/22 01:19:18;;;;;;;;;2.00;2.00;;;;;24.37;51.08;101593.50;5090872;27;45489;-74
2023/08/22 01:21:50;;;;;;;;;0.75;0.75;;;;;24.37;51.25;101605.31;5098942;27;45364;-74
2023/08/22 01:24:16;;;;;;;;;1.00;1.00;;;;;24.38;51.49;101603.44;5096988;27;45610;-74
2023/08/22 01:26:43;;;;;;;;;1.00;1.00;;;;;24.33;50.94;101601.06;5099295;27;45369;-73
2023/08/22 01:29:12;;;;;;;;;1.00;1.00;;;;;24.32;51.30;101593.88;5093633;27;45962;-74
2023/08/22 01:31:54;;;;;;;;;1.00;1.00;;;;;24.28;51.61;101586.91;5099399;27;45431;-73
2023/08/22 01:34:28;;;;;;;;;1.00;1.00;;;;;24.25;51.23;101584.41;5097644;27;45384;-73
2023/08/22 01:36:56;;;;;;;;;1.00;1.00;;;;;24.19;51.76;101584.88;5098380;27;45633;-74
2023/08/22 01:39:26;;;;;;;;;2.00;1.00;;;;;24.20;51.87;101586.63;5086316;27;46115;-74
2023/08/22 01:41:52;;;;;;;;;1.00;1.00;;;;;24.22;51.84;101592.84;5099634;27;45487;-74
2023/08/22 01:44:17;;;;;;;;;1.00;1.00;;;;;24.19;52.04;101580.31;5100546;27;45421;-74
2023/08/22 01:46:42;;;;;;;;;1.50;1.50;;;;;24.18;51.54;101584.03;5097947;27;45525;-74
2023/08/22 01:49:08;;;;;;;;;1.50;1.00;;;;;24.14;51.79;101576.19;5089091;27;45494;-74
2023/08/22 01:51:33;;;;;;;;;1.00;1.00;;;;;24.13;52.07;101579.91;5093415;27;45375;-74
2023/08/22 01:53:58;;;;;;;;;0.50;0.50;;;;;24.11;51.44;101582.75;5089384;27;58142;-74
2023/08/22 01:56:24;;;;;;;;;0.00;0.00;;;;;24.12;51.85;101576.31;5097641;27;45545;-73
2023/08/22 01:58:49;;;;;;;;;1.50;0.50;;;;;24.13;52.10;101583.50;5093124;27;45517;-74
2023/08/22 02:01:15;;;;;;;;;0.00;0.00;;;;;24.05;51.97;101567.72;5093158;27;45452;-73
2023/08/22 02:03:42;;;;;;;;;1.00;1.00;;;;;24.09;52.08;101572.94;5097492;27;45337;-73
2023/08/22 02:06:08;;;;;;;;;2.00;1.00;;;;;24.09;51.95;101567.50;5084074;27;45306;-73
2023/08/22 02:08:33;;;;;;;;;1.00;1.00;;;;;23.97;52.29;101537.47;5099927;27;46031;-73
2023/08/22 02:10:58;;;;;;;;;2.00;1.00;;;;;24.02;52.53;101564.38;5082373;27;45501;-73
2023/08/22 02:13:24;;;;;;;;;0.00;0.00;;;;;24.00;52.80;101561.75;5099814;27;45562;-73
2023/08/22 02:15:49;;;;;;;;;2.00;2.00;;;;;23.95;52.71;101554.91;5091580;27;45805;-73
2023/08/22 02:18:14;;;;;;;;;1.00;1.00;;;;;23.96;52.81;101562.13;5097355;27;55126;-74
2023/08/22 02:20:40;;;;;;;;;1.00;1.00;;;;;23.92;52.46;101558.72;5092330;27;45435;-74
2023/08/22 02:23:05;;;;;;;;;1.00;1.00;;;;;23.93;53.10;101571.41;5097379;27;45562;-73
2023/08/22 02:25:32;;;;;;;;;1.00;1.00;;;;;23.95;52.57;101565.81;5093509;27;58481;-74
2023/08/22 02:27:58;;;;;;;;;1.00;1.00;;;;;23.95;52.73;101577.59;5099685;27;46152;-74
2023/08/22 02:30:24;;;;;;;;;1.00;1.00;;;;;23.88;53.24;101557.25;5081917;27;45718;-73
2023/08/22 02:32:49;;;;;;;;;1.75;1.50;;;;;23.88;53.08;101564.56;5095773;27;45440;-74
2023/08/22 02:35:14;;;;;;;;;1.00;1.00;;;;;23.90;52.85;101570.75;5089770;27;45509;-74
2023/08/22 02:37:39;;;;;;;;;1.00;1.00;;;;;23.83;53.30;101560.31;5099477;27;45591;-74
2023/08/22 02:40:09;;;;;;;;;1.00;1.00;;;;;23.82;53.24;101557.69;5082438;27;53874;-74
2023/08/22 02:42:34;;;;;;;;;1.00;1.00;;;;;23.81;53.47;101559.53;5099117;27;46042;-73
2023/08/22 02:45:00;;;;;;;;;1.00;1.00;;;;;23.80;53.21;101555.06;5079049;27;45403;-73
2023/08/22 02:47:25;;;;;;;;;3.00;1.00;;;;;23.76;53.42;101542.66;5096072;27;45463;-74
2023/08/22 02:49:50;;;;;;;;;1.00;1.00;;;;;23.77;53.69;101538.06;5087837;27;47581;-73
2023/08/22 02:52:16;;;;;;;;;1.75;1.75;;;;;23.80;53.63;101549.59;5097769;27;46103;-74
2023/08/22 02:54:41;;;;;;;;;1.50;1.50;;;;;23.79;53.32;101545.16;5098523;27;45559;-74
2023/08/22 02:57:07;;;;;;;;;1.00;1.00;;;;;23.80;53.69;101548.75;5095515;27;54522;-74
2023/08/22 02:59:33;;;;;;;;;1.00;1.00;;;;;23.76;53.66;101547.25;5095769;27;45454;-73
2023/08/22 03:01:58;;;;;;;;;4.25;2.50;;;;;23.70;53.81;101544.97;5090571;27;46605;-73
2023/08/22 03:04:23;;;;;;;;;0.75;0.75;;;;;23.74;54.16;101547.34;5081739;27;55189;-74
2023/08/22 03:06:48;;;;;;;;;1.00;1.00;;;;;23.72;54.19;101543.84;5092642;27;51458;-73
2023/08/22 03:09:14;;;;;;;;;1.00;1.00;;;;;23.75;54.23;101549.09;5095800;27;45401;-74
2023/08/22 03:11:39;;;;;;;;;1.25;1.00;;;;;23.73;54.11;101548.34;5080526;27;45333;-74
2023/08/22 03:14:04;;;;;;;;;1.00;1.00;;;;;23.70;54.03;101547.69;5095088;27;45496;-74
2023/08/22 03:16:30;;;;;;;;;1.00;1.00;;;;;23.72;53.87;101553.91;5089446;27;60620;-74
2023/08/22 03:18:57;;;;;;;;;1.00;1.00;;;;;23.68;54.12;101547.81;5097809;27;45392;-74
2023/08/22 03:21:22;;;;;;;;;1.00;1.00;;;;;23.65;54.03;101553.50;5088615;27;45437;-74
2023/08/22 03:23:47;;;;;;;;;1.75;1.75;;;;;23.63;54.10;101547.28;5098540;27;45329;-74
2023/08/22 03:26:13;;;;;;;;;1.50;1.00;;;;;23.64;54.50;101541.72;5097229;27;45239;-74
2023/08/22 03:28:39;;;;;;;;;2.00;1.00;;;;;23.67;54.13;101549.69;5091718;27;45501;-74
2023/08/22 03:31:04;;;;;;;;;1.00;1.00;;;;;23.65;53.86;101542.59;5081846;27;45744;-73
2023/08/22 03:33:30;;;;;;;;;2.00;1.00;;;;;23.65;54.33;101548.03;5094092;27;45376;-74
2023/08/22 03:35:56;;;;;;;;;2.00;2.00;;;;;23.64;54.53;101546.31;5083294;27;45726;-74
2023/08/22 03:38:23;;;;;;;;;2.25;1.25;;;;;23.61;54.83;101539.22;5097343;27;45682;-74
2023/08/22 03:40:48;;;;;;;;;1.00;1.00;;;;;23.60;54.50;101540.19;5089907;27;45409;-74
2023/08/22 03:43:16;;;;;;;;;1.00;1.00;;;;;23.63;54.66;101545.44;5092853;27;45346;-74
2023/08/22 03:45:42;;;;;;;;;1.00;1.00;;;;;23.61;54.24;101547.41;5094445;27;46172;-73
2023/08/22 03:48:07;;;;;;;;;2.00;2.00;;;;;23.62;54.56;101549.16;5091488;27;45357;-74
2023/08/22 03:50:32;;;;;;;;;2.00;2.00;;;;;23.60;54.22;101551.09;5093249;27;45669;-73
2023/08/22 03:52:58;;;;;;;;;1.00;1.00;;;;;23.60;54.86;101544.78;5089692;27;45446;-74
2023/08/22 03:55:23;;;;;;;;;0.75;0.75;;;;;23.59;54.34;101545.75;5089005;27;45446;-74
2023/08/22 03:57:49;;;;;;;;;1.00;1.00;;;;;23.56;54.60;101541.44;5097747;27;45430;-75
2023/08/22 04:00:14;;;;;;;;;1.00;1.00;;;;;23.61;54.56;101543.81;5091854;27;45250;-74
2023/08/22 04:02:40;;;;;;;;;3.00;1.00;;;;;23.60;54.69;101544.78;5090343;27;45298;-73
2023/08/22 04:05:05;;;;;;;;;2.00;2.00;;;;;23.59;54.86;101541.19;5091437;27;52701;-74
2023/08/22 04:07:31;;;;;;;;;1.00;1.00;;;;;23.55;54.59;101531.50;5099189;27;45559;-74
2023/08/22 04:09:56;;;;;;;;;1.25;1.25;;;;;23.59;54.56;101535.75;5092719;27;50593;-74
2023/08/22 04:12:21;;;;;;;;;1.00;1.00;;;;;23.58;54.79;101531.28;5085250;27;55206;-73
2023/08/22 04:14:46;;;;;;;;;1.00;1.00;;;;;23.59;54.73;101537.59;5099631;27;54623;-74
2023/08/22 04:17:12;;;;;;;;;1.00;1.00;;;;;23.65;54.72;101550.75;5095738;27;54401;-74
2023/08/22 04:19:38;;;;;;;;;1.00;1.00;;;;;23.56;54.61;101541.44;5081873;27;45579;-73
2023/08/22 04:22:04;;;;;;;;;1.25;1.00;;;;;23.66;55.17;101552.50;5089935;27;45395;-73
2023/08/22 04:24:29;;;;;;;;;1.00;1.00;;;;;23.67;54.79;101551.50;5096442;27;46538;-73
2023/08/22 04:26:54;;;;;;;;;1.00;1.00;;;;;23.67;54.89;101546.06;5100107;27;45535;-73
2023/08/22 04:29:20;;;;;;;;;1.50;1.50;;;;;23.70;55.11;101553.16;5101098;27;52736;-73
2023/08/22 04:31:46;;;;;;;;;2.00;1.00;;;;;23.71;54.92;101554.91;5099554;27;45608;-74
2023/08/22 04:34:11;;;;;;;;;1.75;1.00;;;;;23.72;55.32;101562.94;5095199;27;45258;-74
2023/08/22 04:36:36;;;;;;;;;2.25;1.00;;;;;23.68;55.67;101548.66;5090079;27;56587;-74
2023/08/22 04:39:02;;;;;;;;;2.00;1.00;;;;;23.68;55.17;101550.53;5099316;27;45307;-74
2023/08/22 04:41:28;;;;;;;;;1.00;1.00;;;;;23.72;54.81;101559.34;5096042;27;45622;-74
2023/08/22 04:43:53;;;;;;;;;2.00;2.00;;;;;23.71;55.15;101546.72;5097710;27;46530;-74
2023/08/22 04:46:18;;;;;;;;;2.00;1.00;;;;;23.73;55.37;101544.75;5091933;27;45421;-74
2023/08/22 04:48:44;;;;;;;;;1.75;1.75;;;;;23.71;55.71;101542.13;5095074;27;45356;-73
2023/08/22 04:51:09;;;;;;;;;3.00;2.00;;;;;23.74;55.70;101549.19;5100586;27;45451;-74
2023/08/22 04:53:35;;;;;;;;;2.50;2.50;;;;;23.72;55.41;101543.00;5097004;27;57408;-74
2023/08/22 04:56:00;;;;;;;;;1.00;1.00;;;;;23.74;56.05;101552.81;5090724;27;45512;-74
2023/08/22 04:58:25;;;;;;;;;1.00;1.00;;;;;23.73;55.88;101539.28;5092423;27;58393;-74
2023/08/22 05:00:51;;;;;;;;;1.00;1.00;;;;;23.76;56.02;101552.69;5092964;27;45483;-74
2023/08/22 05:03:19;;;;;;;;;2.00;2.00;;;;;23.75;55.90;101557.25;5087996;27;64659;-74
2023/08/22 05:05:44;;;;;;;;;2.00;2.00;;;;;23.75;56.13;101559.97;5094398;27;45702;-73
2023/08/22 05:08:10;;;;;;;;;2.75;2.75;;;;;23.76;56.17;101567.19;5100995;27;45510;-73
2023/08/22 05:10:35;;;;;;;;;2.25;2.00;;;;;23.71;56.32;101553.03;5084361;27;45523;-73
2023/08/22 05:13:00;;;;;;;;;1.25;1.25;;;;;23.73;56.27;101558.38;5088161;27;46299;-73
2023/08/22 05:15:26;;;;;;;;;3.00;3.00;;;;;23.71;55.92;101554.91;5088713;27;48744;-73
2023/08/22 05:17:51;;;;;;;;;1.75;1.75;;;;;23.71;56.13;101563.94;5099537;27;45424;-73
2023/08/22 05:20:16;;;;;;;;;2.00;2.00;;;;;23.73;56.56;101567.41;5099544;27;45552;-73
2023/08/22 05:22:42;;;;;;;;;2.00;2.00;;;;;23.73;56.60;101570.13;5089558;27;46056;-74
2023/08/22 05:25:07;;;;;;;;;2.25;2.25;;;;;23.75;56.26;101575.47;5098732;27;45686;-74
2023/08/22 05:27:33;;;;;;;;;1.25;1.25;;;;;23.68;56.14;101573.19;5089965;27;45443;-74
2023/08/22 05:29:58;;;;;;;;;2.00;2.00;;;;;23.73;56.24;101578.31;5093387;27;45319;-74
2023/08/22 05:32:23;;;;;;;;;1.25;1.00;;;;;23.75;56.47;101580.94;5081378;27;45402;-74
2023/08/22 05:34:49;;;;;;;;;1.00;1.00;;;;;23.70;55.80;101580.41;5099191;27;53177;-73
2023/08/22 05:37:14;;;;;;;;;2.50;2.00;;;;;23.71;56.26;101588.47;5096715;27;45367;-73
2023/08/22 05:39:39;;;;;;;;;5.00;3.00;;;;;23.65;56.32;101578.88;5099967;27;54510;-74
2023/08/22 05:42:05;;;;;;;;;1.25;1.25;;;;;23.66;56.76;101586.09;5098921;27;52056;-74
2023/08/22 05:44:32;;;;;;;;;1.00;1.00;;;;;23.63;56.74;101582.72;5090575;27;45610;-73
2023/08/22 05:46:58;;;;;;;;;2.25;2.25;;;;;23.64;56.66;101585.34;5098149;27;45543;-73
2023/08/22 05:49:23;;;;;;;;;2.00;1.00;;;;;23.71;56.79;101584.88;5100210;27;45498;-73
2023/08/22 05:51:49;;;;;;;;;2.00;2.00;;;;;23.64;56.21;101576.28;5086642;27;45381;-74
2023/08/22 05:54:14;;;;;;;;;1.75;1.75;;;;;23.62;56.58;101586.41;5088359;27;45357;-73
2023/08/22 05:56:39;;;;;;;;;1.00;1.00;;;;;23.57;56.58;101581.34;5096822;27;45497;-73
2023/08/22 05:59:05;;;;;;;;;1.75;1.75;;;;;23.52;56.90;101580.78;5098589;27;45579;-74
2023/08/22 06:01:30;;;;;;;;;2.00;2.00;;;;;23.48;56.73;101590.16;5099595;27;45314;-72
2023/08/22 06:03:55;;;;;;;;;2.00;2.00;;;;;23.44;56.73;101589.53;5098722;27;45536;-71
2023/08/22 06:06:20;;;;;;;;;2.50;2.50;;;;;23.46;57.06;101592.16;5093177;27;45388;-71
2023/08/22 06:08:47;;;;;;;;;3.00;2.50;;;;;23.49;57.56;101600.09;5088312;27;53387;-72
2023/08/22 06:11:12;;;;;;;;;2.00;2.00;;;;;23.55;57.45;101606.94;5082364;27;45361;-73
2023/08/22 06:13:37;;;;;;;;;3.25;3.25;;;;;23.57;57.48;101613.13;5082713;27;60378;-73
2023/08/22 06:16:03;;;;;;;;;3.75;2.25;;;;;23.59;57.91;101620.22;5093939;27;45699;-73
2023/08/22 06:18:28;;;;;;;;;3.50;3.00;;;;;23.61;58.10;101620.13;5096548;27;45377;-73
2023/08/22 06:21:02;;;;;;;;;2.25;2.25;;;;;23.61;58.08;101631.88;5099346;27;46440;-73
2023/08/22 06:23:28;;;;;;;;;3.00;3.00;;;;;23.55;57.66;101629.59;5089594;27;46129;-73
2023/08/22 06:25:54;;;;;;;;;3.50;2.75;;;;;23.55;57.48;101632.31;5093825;27;45313;-73
2023/08/22 06:28:19;;;;;;;;;2.25;2.25;;;;;23.44;57.29;101624.94;5090738;27;45633;-73
2023/08/22 06:30:44;;;;;;;;;2.50;2.00;;;;;23.46;58.09;101633.03;5095267;27;47620;-71
2023/08/22 06:33:09;;;;;;;;;2.50;2.50;;;;;23.48;57.70;101631.91;5091294;27;45443;-71
2023/08/22 06:35:35;;;;;;;;;2.00;2.00;;;;;23.45;57.83;101625.81;5089777;27;45313;-71
2023/08/22 06:38:00;;;;;;;;;4.25;4.25;;;;;23.46;57.98;101639.31;5092392;27;50285;-71
2023/08/22 06:40:25;;;;;;;;;4.00;2.25;;;;;23.46;58.10;101635.75;5084596;27;52361;-71
2023/08/22 06:42:51;;;;;;;;;3.00;3.00;;;;;23.46;58.35;101622.13;5087609;27;45354;-71
2023/08/22 06:45:17;;;;;;;;;0.75;0.75;;;;;23.47;58.21;101627.47;5097307;27;47150;-71
2023/08/22 06:47:42;;;;;;;;;4.25;3.00;;;;;23.47;58.42;101622.00;5095179;27;45714;-71
2023/08/22 06:50:07;;;;;;;;;3.50;1.75;;;;;23.46;58.27;101613.94;5086960;27;45778;-71
2023/08/22 06:52:33;;;;;;;;;2.00;2.00;;;;;23.54;58.09;101616.09;5090418;27;45457;-71
2023/08/22 06:54:58;;;;;;;;;2.00;2.00;;;;;23.62;58.09;101635.47;5091744;27;45964;-70
2023/08/22 06:57:24;;;;;;;;;3.75;3.50;;;;;23.54;57.95;101616.97;5080611;27;45468;-72
2023/08/22 06:59:49;;;;;;;;;1.00;1.00;;;;;23.51;57.96;101613.63;5095084;27;45998;-72
2023/08/22 07:02:15;;;;;;;;;2.75;2.00;;;;;23.61;58.10;101631.03;5091751;27;45488;-72
2023/08/22 07:04:40;;;;;;;;;4.75;3.25;;;;;23.54;58.39;101625.16;5096229;27;45557;-72
2023/08/22 07:07:05;;;;;;;;;4.00;4.00;;;;;23.59;58.46;101633.84;5092003;27;45578;-72
2023/08/22 07:09:31;;;;;;;;;4.00;4.00;;;;;23.59;58.68;101622.06;5093776;27;46291;-72
2023/08/22 07:11:56;;;;;;;;;3.75;3.75;;;;;23.73;59.21;101637.44;5097443;27;45536;-71
2023/08/22 07:14:21;;;;;;;;;6.25;2.75;;;;;23.67;58.75;101623.25;5094453;27;45462;-71
2023/08/22 07:16:47;;;;;;;;;3.25;3.25;;;;;23.78;58.74;101627.03;5098481;27;45317;-65
2023/08/22 07:19:12;;;;;;;;;4.50;4.25;;;;;23.79;58.24;101628.78;5083605;27;46039;-65
2023/08/22 07:21:38;;;;;;;;;3.25;3.25;;;;;23.81;57.85;101630.41;5085620;27;45831;-66
2023/08/22 07:24:04;;;;;;;;;4.75;2.00;;;;;23.80;58.11;101631.38;5090960;27;45519;-66
2023/08/22 07:26:30;;;;;;;;;4.25;4.00;;;;;23.76;58.09;101621.72;5093302;27;45934;-65
2023/08/22 07:28:55;;;;;;;;;4.00;4.00;;;;;23.79;57.82;101617.88;5095188;27;45552;-65
2023/08/22 07:31:20;;;;;;;;;3.00;3.00;;;;;23.86;57.90;101630.09;5085343;27;58048;-65
2023/08/22 07:33:46;;;;;;;;;3.00;3.00;;;;;23.84;57.96;101623.91;5087958;27;48643;-65
2023/08/22 07:36:18;;;;;;;;;4.75;4.00;;;;;23.81;58.36;101614.06;5084535;27;45671;-66
2023/08/22 07:38:43;;;;;;;;;3.50;2.75;;;;;23.86;58.95;101622.78;5088123;27;46335;-65
2023/08/22 07:41:10;;;;;;;;;5.50;3.00;;;;;23.86;57.76;101611.03;5092654;27;45628;-65
2023/08/22 07:43:35;;;;;;;;;5.00;3.00;;;;;23.94;57.29;101627.69;5083205;27;45336;-65
2023/08/22 07:46:00;;;;;;;;;8.50;1.00;;;;;23.94;57.54;101615.88;5096936;27;45427;-65
2023/08/22 07:48:26;;;;;;;;;3.00;2.75;;;;;23.94;57.19;101614.03;5090298;27;53034;-65
2023/08/22 07:50:51;;;;;;;;;1.75;1.75;;;;;23.97;57.24;101630.19;5096894;27;45932;-65
2023/08/22 07:53:16;;;;;;;;;8.75;5.25;;;;;24.03;57.09;101637.00;5096743;27;45482;-65
2023/08/22 07:55:46;;;;;;;;;5.00;3.00;;;;;24.09;57.88;101635.66;5095736;27;57250;-65
2023/08/22 07:58:11;;;;;;;;;2.75;2.75;;;;;24.12;56.96;101640.91;5095730;27;46363;-66
2023/08/22 08:00:37;;;;;;;;;3.00;3.00;;;;;24.12;57.17;101632.72;5099569;27;45806;-66
2023/08/22 08:03:03;;;;;;;;;4.50;3.25;;;;;24.21;57.60;101645.66;5097741;27;45556;-65
2023/08/22 08:05:29;;;;;;;;;4.25;4.25;;;;;24.17;57.91;101631.41;5094853;27;45524;-65
2023/08/22 08:07:55;;;;;;;;;2.00;2.00;;;;;24.30;56.86;101647.69;5088462;27;45364;-65
2023/08/22 08:10:20;;;;;;;;;3.50;3.00;;;;;24.33;56.23;101649.31;5086879;27;45842;-66
2023/08/22 08:12:45;;;;;;;;;3.75;3.00;;;;;24.35;55.97;101642.75;5096060;27;46088;-65
2023/08/22 08:15:11;;;;;;;;;3.00;3.00;;;;;24.41;56.64;101653.19;5106998;27;45676;-65
2023/08/22 08:17:36;;;;;;;;;2.75;2.00;;;;;24.45;57.02;101650.25;5089023;27;45542;-65
2023/08/22 08:20:03;;;;;;;;;3.50;2.00;;;;;24.47;56.41;101645.53;5090516;27;45502;-66
2023/08/22 08:22:28;;;;;;;;;3.00;3.00;;;;;24.57;55.70;101655.66;5088404;27;45518;-66
2023/08/22 08:24:54;;;;;;;;;4.00;3.75;;;;;24.58;56.13;101640.16;5094565;27;46221;-66
2023/08/22 08:27:20;;;;;;;;;3.50;3.50;;;;;24.65;55.62;101644.13;5097144;27;54462;-66
2023/08/22 08:29:46;;;;;;;;;3.00;2.50;;;;;24.69;55.36;101655.69;5090874;27;45615;-65
2023/08/22 08:32:11;;;;;;;;;5.00;3.25;;;;;24.71;56.72;101646.38;5094238;27;45599;-66
2023/08/22 08:34:37;;;;;;;;;2.50;2.50;;;;;24.72;56.34;101648.13;5091523;27;45562;-66
2023/08/22 08:37:04;;;;;;;;;3.00;3.00;;;;;24.84;56.53;101651.78;5092674;27;49443;-66
2023/08/22 08:39:29;;;;;;;;;5.00;3.00;;;;;24.91;55.94;101652.16;5098164;27;45335;-65
2023/08/22 08:42:12;;;;;;;;;5.50;3.50;;;;;24.93;55.46;101647.44;5096251;27;45487;-65
2023/08/22 08:44:38;;;;;;;;;1.50;1.50;;;;;25.00;55.28;101645.94;5087312;27;45467;-65
2023/08/22 08:47:06;;;;;;;;;3.50;3.00;;;;;25.03;54.90;101653.91;5090682;27;46498;-66
2023/08/22 08:49:33;;;;;;;;;4.00;4.00;;;;;25.10;54.68;101652.41;5094246;27;45527;-66
2023/08/22 08:52:02;;;;;;;;;4.25;3.00;;;;;25.14;55.00;101651.19;5088094;27;46123;-66
2023/08/22 08:54:28;;;;;;;;;2.00;2.00;;;;;25.17;54.51;101649.19;5100153;27;45491;-66
2023/08/22 08:56:54;;;;;;;;;3.00;2.25;;;;;25.20;54.30;101654.44;5097501;27;46506;-66
2023/08/22 08:59:19;;;;;;;;;4.00;3.00;;;;;25.21;53.92;101642.47;5096617;27;45368;-65
2023/08/22 09:01:46;;;;;;;;;5.25;3.00;;;;;25.26;54.46;101652.09;5097589;27;45438;-66
2023/08/22 09:04:11;;;;;;;;;3.00;3.00;;;;;25.29;54.14;101626.38;5090741;27;45363;-66
2023/08/22 09:06:37;;;;;;;;;2.75;2.50;;;;;25.38;54.32;101643.91;5093767;27;47084;-66
2023/08/22 09:09:07;;;;;;;;;3.00;3.00;;;;;25.42;53.05;101635.31;5094533;27;45655;-66
2023/08/22 09:11:32;;;;;;;;;4.00;2.75;;;;;25.44;52.46;101627.88;5092489;27;45399;-66
2023/08/22 09:13:58;;;;;;;;;3.00;3.00;;;;;25.48;52.64;101634.81;5089670;27;45503;-66
2023/08/22 09:16:24;;;;;;;;;3.00;2.25;;;;;25.50;52.61;101627.38;5092220;27;46323;-66
2023/08/22 09:18:50;;;;;;;;;3.00;2.00;;;;;25.56;52.93;101630.59;5092385;27;45472;-66
2023/08/22 09:21:16;;;;;;;;;3.00;3.00;;;;;25.59;52.43;101625.72;5096409;27;45595;-66
2023/08/22 09:23:42;;;;;;;;;2.00;2.00;;;;;25.66;53.07;101626.09;5096082;27;45405;-66
2023/08/22 09:26:09;;;;;;;;;3.00;3.00;;;;;25.76;52.18;101624.38;5092571;27;45294;-66
2023/08/22 09:28:39;;;;;;;;;3.00;2.00;;;;;25.85;51.82;101637.25;5099004;27;45572;-66
2023/08/22 09:31:05;;;;;;;;;2.75;2.00;;;;;25.89;51.01;101630.56;5096923;27;45514;-66
2023/08/22 09:33:46;;;;;;;;;4.25;2.00;;;;;25.91;50.57;101621.34;5090005;27;45617;-65
2023/08/22 09:36:11;;;;;;;;;2.25;2.25;;;;;25.99;50.43;101629.78;5093269;27;46469;-66
2023/08/22 09:38:57;;;;;;;;;9.25;7.00;;;;;26.05;50.98;101632.88;5088779;27;46540;-66
2023/08/22 09:41:27;;;;;;;;;3.00;3.00;;;;;26.11;51.23;101630.63;5089412;27;45504;-66
2023/08/22 09:43:54;;;;;;;;;2.25;2.00;;;;;26.15;50.74;101626.66;5091162;27;46010;-65
2023/08/22 09:46:23;;;;;;;;;1.00;1.00;;;;;26.21;50.27;101628.84;5095716;27;47058;-66
2023/08/22 09:48:49;;;;;;;;;3.25;3.25;;;;;26.28;50.48;101632.81;5088866;27;45511;-65
2023/08/22 09:51:18;;;;;;;;;1.25;1.25;;;;;26.33;49.66;101615.97;5094738;27;45623;-65
2023/08/22 09:53:47;;;;;;;;;3.00;1.75;;;;;26.43;49.49;101627.91;5088059;27;45480;-66
2023/08/22 09:56:13;;;;;;;;;2.25;2.00;;;;;26.47;49.13;101626.63;5086574;27;45654;-66
2023/08/22 09:58:40;;;;;;;;;1.00;1.00;;;;;26.49;48.80;101629.22;5094265;27;45666;-66
2023/08/22 10:01:06;;;;;;;;;3.00;3.00;;;;;26.54;49.20;101635.19;5095223;27;45282;-66
2023/08/22 10:03:32;;;;;;;;;2.00;1.50;;;;;26.49;48.76;101612.81;5077977;28;45441;-66
2023/08/22 10:05:57;;;;;;;;;1.00;1.00;;;;;26.60;48.47;101631.91;5077498;27;45464;-66
2023/08/22 10:08:23;;;;;;;;;2.00;2.00;;;;;26.59;48.87;101616.47;5082721;27;45574;-66
2023/08/22 10:10:48;;;;;;;;;2.00;1.75;;;;;26.71;49.08;101626.38;5092384;27;45481;-66
2023/08/22 10:13:16;;;;;;;;;3.00;3.00;;;;;26.77;49.05;101622.25;5087311;27;45455;-66
2023/08/22 10:15:42;;;;;;;;;2.25;1.25;;;;;26.84;48.32;101617.13;5084274;27;45581;-66
2023/08/22 10:18:08;;;;;;;;;1.25;0.25;;;;;26.86;47.95;101618.69;5093055;27;45430;-65
2023/08/22 10:20:35;;;;;;;;;1.75;1.75;;;;;26.88;47.89;101613.09;5097071;27;45328;-66
2023/08/22 10:23:00;;;;;;;;;2.00;1.75;;;;;26.80;48.14;101598.22;5092373;27;45932;-66
2023/08/22 10:25:45;;;;;;;;;3.00;2.00;;;;;26.92;49.16;101604.47;5092435;27;45541;-65
2023/08/22 10:28:10;;;;;;;;;3.00;2.00;;;;;27.06;47.83;101616.09;5088021;27;45613;-66
2023/08/22 10:31:05;;;;;;;;;3.50;2.50;;;;;27.11;47.60;101616.53;5100092;27;45647;-66
2023/08/22 10:33:31;;;;;;;;;2.00;2.00;;;;;27.14;48.53;101608.03;5083875;27;45464;-67
2023/08/22 10:36:16;;;;;;;;;3.00;3.00;;;;;27.21;48.04;101603.75;5089388;27;47167;-66
2023/08/22 10:38:52;;;;;;;;;2.50;2.50;;;;;27.26;49.11;101595.97;5095176;27;45572;-66
2023/08/22 10:41:41;;;;;;;;;2.00;2.00;;;;;27.37;48.87;101596.94;5088849;27;45459;-66
2023/08/22 10:44:16;;;;;;;;;1.25;1.25;;;;;27.46;47.59;101599.69;5093517;27;45341;-65
2023/08/22 10:47:04;;;;;;;;;2.25;1.25;;;;;27.46;47.75;101594.19;5084012;27;46400;-66
2023/08/22 10:49:30;;;;;;;;;2.50;2.50;;;;;27.53;47.06;101598.13;5095862;27;45337;-65
2023/08/22 10:52:10;;;;;;;;;4.75;3.00;;;;;27.52;46.87;101587.31;5093664;27;45569;-66
2023/08/22 10:55:00;;;;;;;;;2.00;2.00;;;;;27.61;47.39;101583.72;5096256;27;45485;-66
2023/08/22 10:57:27;;;;;;;;;3.75;2.25;;;;;27.61;46.83;101582.84;5096996;27;46258;-66
2023/08/22 10:59:59;;;;;;;;;2.00;2.00;;;;;27.64;46.48;101583.44;5093452;27;45548;-66
2023/08/22 11:02:32;;;;;;;;;5.50;3.00;;;;;27.66;46.51;101592.38;5082086;27;45376;-65
2023/08/22 11:05:03;;;;;;;;;1.50;1.50;;;;;27.66;46.28;101586.03;5081695;27;45464;-65
2023/08/22 11:07:30;;;;;;;;;1.00;1.00;;;;;27.66;46.35;101592.38;5089729;27;45389;-65
2023/08/22 11:09:56;;;;;;;;;4.00;2.75;;;;;27.68;46.31;101587.66;5094846;27;45547;-65
2023/08/22 11:12:23;;;;;;;;;3.00;3.00;;;;;27.69;46.16;101589.34;5096006;27;45515;-66
2023/08/22 11:14:51;;;;;;;;;2.00;2.00;;;;;27.70;46.47;101585.63;5098673;27;45410;-66
2023/08/22 11:17:18;;;;;;;;;1.00;1.00;;;;;27.73;46.35;101588.09;5082174;27;46373;-67
2023/08/22 11:19:44;;;;;;;;;0.75;0.75;;;;;27.72;45.89;101585.47;5098035;27;45495;-66
2023/08/22 11:22:10;;;;;;;;;3.00;3.00;;;;;27.79;47.00;101583.91;5094807;27;45764;-66